createdAt,value
2019-01-31T00:01:35.686Z,56.73
2019-01-31T00:04:31.527Z,54.80
2019-01-31T00:07:31.848Z,59.30
2019-01-31T00:10:26.858Z,62.27
2019-01-31T00:13:17.582Z,52.83
2019-01-31T00:16:12.389Z,53.37
2019-01-31T00:18:51.142Z,55.50
2019-01-31T00:22:02.664Z,56.10
2019-01-31T00:25:05.128Z,59.47
2019-01-31T00:28:02.946Z,57.73
2019-01-31T00:31:01.846Z,63.40
2019-01-31T00:34:06.117Z,56.83
2019-01-31T00:37:03.289Z,59.90
2019-01-31T00:40:02.906Z,58.50
2019-01-31T00:43:32.702Z,57.77
2019-01-31T00:46:35.452Z,49.70
2019-01-31T00:49:23.142Z,54.67
2019-01-31T00:52:31.950Z,54.97
2019-01-31T00:55:31.012Z,55.77
2019-01-31T00:58:18.845Z,52.93
2019-01-31T01:01:19.339Z,49.87
2019-01-31T01:04:31.405Z,52.77
2019-01-31T01:07:41.510Z,52.20
2019-01-31T01:10:32.479Z,54.47
2019-01-31T01:13:35.984Z,50.53
2019-01-31T01:16:51.515Z,49.03
2019-01-31T01:19:48.924Z,57.57
2019-01-31T01:22:44.517Z,52.40
2019-01-31T01:25:52.011Z,54.30
2019-01-31T01:28:53.255Z,54.87
2019-01-31T01:32:06.532Z,54.63
2019-01-31T01:35:06.237Z,53.23
2019-01-31T01:38:12.010Z,52.03
2019-01-31T01:41:18.745Z,50.47
2019-01-31T01:44:17.924Z,48.27
2019-01-31T01:47:12.588Z,49.77
2019-01-31T01:50:26.808Z,54.83
2019-01-31T01:53:35.914Z,49.00
2019-01-31T01:56:29.303Z,49.50
2019-01-31T01:59:13.979Z,48.90
2019-01-31T02:02:22.944Z,58.87
2019-01-31T02:05:34.288Z,56.80
2019-01-31T02:08:32.046Z,56.10
2019-01-31T02:11:23.367Z,55.50
2019-01-31T02:14:22.127Z,55.03
2019-01-31T02:17:20.314Z,52.27
2019-01-31T02:20:46.442Z,63.83
2019-01-31T02:24:01.621Z,48.60
2019-01-31T02:27:04.771Z,55.53
2019-01-31T02:30:18.193Z,51.10
2019-01-31T02:33:14.437Z,62.13
2019-01-31T02:36:24.139Z,55.40
2019-01-31T02:39:25.930Z,56.37
2019-01-31T02:42:34.696Z,55.93
2019-01-31T02:45:56.746Z,57.30
2019-01-31T02:49:17.505Z,58.37
2019-01-31T02:52:06.485Z,55.47
2019-01-31T02:55:18.823Z,54.80
2019-01-31T02:58:24.666Z,57.37
2019-01-31T03:01:43.604Z,54.07
2019-01-31T03:04:27.817Z,51.73
2019-01-31T03:07:51.086Z,48.37
2019-01-31T03:10:45.468Z,58.90
2019-01-31T03:13:31.250Z,53.03
2019-01-31T03:16:39.906Z,51.53
2019-01-31T03:19:28.231Z,57.67
2019-01-31T03:22:36.738Z,53.17
2019-01-31T03:25:29.927Z,57.27
2019-01-31T03:28:23.667Z,52.37
2019-01-31T03:31:24.483Z,52.73
2019-01-31T03:34:08.084Z,55.87
2019-01-31T03:37:46.976Z,55.50
2019-01-31T03:40:53.717Z,49.63
2019-01-31T03:44:05.671Z,54.50
2019-01-31T03:47:01.056Z,52.67
2019-01-31T03:50:15.004Z,52.77
2019-01-31T03:53:34.760Z,52.40
2019-01-31T03:56:31.570Z,54.57
2019-01-31T03:59:11.007Z,52.87
2019-01-31T04:02:25.783Z,55.57
2019-01-31T04:05:27.795Z,56.97
2019-01-31T04:07:59.613Z,58.20
2019-01-31T04:10:30.417Z,63.53
2019-01-31T04:13:01.511Z,61.10
2019-01-31T04:15:33.091Z,60.60
2019-01-31T04:18:04.977Z,55.80
2019-01-31T04:20:35.328Z,57.40
2019-01-31T04:23:06.092Z,58.27
2019-01-31T04:25:36.630Z,60.47
2019-01-31T04:28:07.066Z,57.10
2019-01-31T04:30:38.600Z,59.97
2019-01-31T04:33:09.577Z,61.93
2019-01-31T04:35:40.812Z,56.40
2019-01-31T04:38:11.625Z,66.33
2019-01-31T04:40:42.761Z,63.80
2019-01-31T04:43:13.641Z,61.33
2019-01-31T04:45:45.604Z,56.90
2019-01-31T04:48:15.989Z,64.37
2019-01-31T04:50:46.671Z,59.63
2019-01-31T04:53:17.565Z,55.23
2019-01-31T04:55:48.642Z,59.90
2019-01-31T04:58:19.637Z,60.20
2019-01-31T05:00:50.577Z,62.10
2019-01-31T05:03:20.956Z,58.03
2019-01-31T05:05:52.702Z,57.50
2019-01-31T05:08:23.591Z,52.53
2019-01-31T05:10:54.583Z,63.13
2019-01-31T05:13:25.517Z,63.67
2019-01-31T05:15:56.574Z,59.23
2019-01-31T05:18:27.542Z,53.23
2019-01-31T05:20:58.395Z,60.03
2019-01-31T05:23:29.292Z,56.67
2019-01-31T05:25:59.773Z,62.55
2019-01-31T05:28:30.868Z,58.90
2019-01-31T05:31:03.937Z,64.17
2019-01-31T05:33:35.135Z,62.25
2019-01-31T05:36:05.826Z,61.58
2019-01-31T05:38:36.935Z,62.62
2019-01-31T05:41:07.879Z,62.93
2019-01-31T05:43:38.788Z,61.00
2019-01-31T05:46:10.029Z,68.33
2019-01-31T05:48:41.090Z,59.88
2019-01-31T05:51:11.894Z,63.43
2019-01-31T05:53:42.893Z,54.18
2019-01-31T05:56:13.913Z,58.10
2019-01-31T05:58:44.385Z,57.58
2019-01-31T06:01:15.906Z,57.40
2019-01-31T06:03:46.819Z,63.03
2019-01-31T06:06:17.880Z,63.95
2019-01-31T06:08:48.735Z,56.45
2019-01-31T06:11:19.770Z,64.80
2019-01-31T06:13:50.672Z,60.30
2019-01-31T06:16:21.151Z,65.20
2019-01-31T06:18:52.415Z,58.05
2019-01-31T06:21:23.346Z,71.00
2019-01-31T06:23:54.364Z,67.53
2019-01-31T06:26:25.258Z,65.83
2019-01-31T06:28:56.313Z,62.50
2019-01-31T06:31:26.843Z,67.42
2019-01-31T06:33:57.851Z,63.83
2019-01-31T06:36:28.610Z,71.35
2019-01-31T06:38:59.620Z,68.22
2019-01-31T06:41:30.248Z,62.13
2019-01-31T06:44:01.193Z,72.75
2019-01-31T06:46:31.591Z,66.75
2019-01-31T06:49:03.261Z,69.37
2019-01-31T06:51:34.485Z,73.30
2019-01-31T06:54:07.602Z,72.12
2019-01-31T06:56:39.175Z,70.12
2019-01-31T06:59:10.262Z,84.85
2019-01-31T07:01:41.314Z,79.22
2019-01-31T07:04:12.244Z,73.67
2019-01-31T07:06:43.297Z,83.78
2019-01-31T07:09:14.222Z,74.40
2019-01-31T07:11:47.236Z,79.10
2019-01-31T07:14:18.386Z,84.60
2019-01-31T07:16:49.321Z,81.75
2019-01-31T07:19:20.267Z,82.78
2019-01-31T07:21:53.273Z,91.80
2019-01-31T07:24:24.373Z,76.28
2019-01-31T07:26:56.397Z,83.37
2019-01-31T07:29:28.313Z,77.85
2019-01-31T07:32:03.620Z,81.50
2019-01-31T07:34:33.470Z,90.87
2019-01-31T07:37:06.303Z,81.37
2019-01-31T07:39:37.220Z,88.37
2019-01-31T07:42:08.073Z,85.70
2019-01-31T07:44:38.515Z,91.05
2019-01-31T07:47:09.400Z,84.03
2019-01-31T07:49:40.531Z,84.40
2019-01-31T07:52:11.713Z,75.80
2019-01-31T07:54:42.463Z,79.62
2019-01-31T07:57:13.486Z,85.62
2019-01-31T07:59:44.383Z,80.35
2019-01-31T08:02:15.268Z,75.17
2019-01-31T08:04:46.194Z,71.28
2019-01-31T08:07:16.644Z,75.40
2019-01-31T08:09:47.564Z,78.85
2019-01-31T08:12:18.831Z,73.67
2019-01-31T08:14:49.613Z,80.00
2019-01-31T08:17:20.569Z,80.97
2019-01-31T08:19:51.718Z,71.87
2019-01-31T08:22:22.084Z,66.73
2019-01-31T08:24:53.673Z,69.97
2019-01-31T08:27:24.517Z,66.80
2019-01-31T08:29:55.359Z,59.10
2019-01-31T08:32:26.250Z,61.53
2019-01-31T08:34:56.730Z,64.97
2019-01-31T08:37:27.667Z,65.23
2019-01-31T08:39:58.900Z,53.83
2019-01-31T08:42:29.903Z,56.10
2019-01-31T08:45:00.730Z,56.73
2019-01-31T08:47:31.788Z,56.43
2019-01-31T08:50:02.678Z,60.43
2019-01-31T08:52:33.653Z,52.73
2019-01-31T08:55:05.061Z,57.67
2019-01-31T08:57:35.923Z,56.57
2019-01-31T09:00:08.799Z,52.23
2019-01-31T09:02:40.855Z,56.90
2019-01-31T09:05:11.801Z,53.77
2019-01-31T09:07:42.949Z,65.07
2019-01-31T09:10:16.451Z,55.27
2019-01-31T09:12:47.907Z,53.07
2019-01-31T09:15:22.766Z,57.77
2019-01-31T09:17:54.988Z,61.00
2019-01-31T09:20:37.293Z,53.87
2019-01-31T09:23:26.546Z,60.60
2019-01-31T09:26:33.931Z,56.93
2019-01-31T09:29:54.200Z,63.60
2019-01-31T09:33:09.003Z,66.20
2019-01-31T09:36:05.480Z,60.20
2019-01-31T09:39:20.368Z,54.57
2019-01-31T09:42:26.590Z,57.93
2019-01-31T09:45:21.620Z,62.43
2019-01-31T09:48:08.103Z,61.70
2019-01-31T09:51:19.906Z,49.13
2019-01-31T09:54:11.009Z,52.60
2019-01-31T09:57:23.929Z,57.70
2019-01-31T10:00:27.981Z,61.50
2019-01-31T10:03:51.262Z,51.70
2019-01-31T10:06:43.367Z,52.30
2019-01-31T10:09:55.320Z,47.20
2019-01-31T10:13:22.686Z,48.20
2019-01-31T10:16:23.029Z,43.63
2019-01-31T10:19:47.868Z,53.90
2019-01-31T10:23:09.963Z,51.27
2019-01-31T10:26:05.040Z,50.40
2019-01-31T10:29:13.001Z,55.93
2019-01-31T10:32:13.912Z,52.20
2019-01-31T10:35:29.828Z,56.43
2019-01-31T10:38:25.033Z,53.47
2019-01-31T10:41:39.248Z,57.07
2019-01-31T10:45:05.212Z,55.87
2019-01-31T10:48:27.521Z,71.17
2019-01-31T10:51:34.772Z,62.90
2019-01-31T10:54:16.879Z,59.13
2019-01-31T10:57:30.068Z,68.80
2019-01-31T11:00:30.251Z,69.70
2019-01-31T11:03:32.152Z,80.70
2019-01-31T11:06:41.391Z,76.07
2019-01-31T11:10:22.183Z,86.00
2019-01-31T11:13:33.547Z,87.13
2019-01-31T11:16:28.670Z,80.00
2019-01-31T11:19:52.212Z,78.10
2019-01-31T11:23:01.263Z,79.33
2019-01-31T11:26:13.878Z,82.57
2019-01-31T11:29:19.035Z,76.67
2019-01-31T11:32:30.307Z,86.40
2019-01-31T11:35:35.229Z,77.23
2019-01-31T11:38:44.112Z,81.57
2019-01-31T11:42:10.756Z,81.43
2019-01-31T11:45:25.005Z,79.47
2019-01-31T11:48:34.913Z,75.37
2019-01-31T11:51:38.902Z,71.80
2019-01-31T11:54:55.414Z,65.00
2019-01-31T11:57:48.291Z,71.20
2019-01-31T12:00:23.820Z,62.40
2019-01-31T12:02:55.845Z,71.40
2019-01-31T12:05:27.651Z,63.17
2019-01-31T12:08:00.466Z,68.33
2019-01-31T12:10:31.402Z,70.20
2019-01-31T12:13:05.085Z,73.20
2019-01-31T12:15:36.172Z,67.80
2019-01-31T12:18:07.198Z,66.27
2019-01-31T12:20:37.738Z,65.20
2019-01-31T12:23:08.586Z,67.20
2019-01-31T12:25:39.722Z,61.60
2019-01-31T12:28:10.672Z,68.87
2019-01-31T12:30:41.784Z,62.50
2019-01-31T12:33:12.737Z,68.73
2019-01-31T12:35:43.591Z,65.20
2019-01-31T12:38:14.650Z,61.67
2019-01-31T12:40:45.788Z,65.97
2019-01-31T12:43:18.319Z,67.07
2019-01-31T12:45:50.882Z,66.17
2019-01-31T12:48:21.372Z,77.23
2019-01-31T12:50:52.805Z,72.23
2019-01-31T12:53:24.789Z,72.03
2019-01-31T12:55:57.773Z,67.00
2019-01-31T12:58:33.612Z,67.23
2019-01-31T13:01:03.489Z,69.57
2019-01-31T13:03:33.895Z,68.20
2019-01-31T13:06:04.976Z,68.87
2019-01-31T13:08:35.707Z,77.00
2019-01-31T13:11:07.385Z,65.93
2019-01-31T13:13:45.975Z,59.83
2019-01-31T13:16:10.995Z,69.97
2019-01-31T13:18:42.984Z,67.77
2019-01-31T13:21:14.147Z,67.70
2019-01-31T13:23:45.194Z,66.10
2019-01-31T13:26:15.967Z,70.70
2019-01-31T13:28:46.382Z,64.50
2019-01-31T13:31:18.087Z,69.73
2019-01-31T13:33:49.010Z,66.77
2019-01-31T13:36:19.996Z,63.33
2019-01-31T13:38:52.192Z,57.63
2019-01-31T13:41:24.362Z,59.80
2019-01-31T13:43:57.604Z,63.40
2019-01-31T13:46:29.050Z,68.20
2019-01-31T13:49:00.080Z,64.63
2019-01-31T13:51:31.028Z,59.77
2019-01-31T13:54:02.089Z,64.77
2019-01-31T13:56:44.906Z,68.00
2019-01-31T13:59:06.983Z,63.93
2019-01-31T14:01:38.149Z,62.70
2019-01-31T14:04:09.120Z,62.80
2019-01-31T14:06:41.174Z,63.50
2019-01-31T14:09:14.142Z,62.97
2019-01-31T14:11:45.089Z,65.30
2019-01-31T14:14:16.071Z,65.20
2019-01-31T14:16:48.120Z,61.43
2019-01-31T14:19:21.183Z,59.70
2019-01-31T14:21:52.175Z,58.37
2019-01-31T14:24:22.600Z,58.33
2019-01-31T14:26:54.104Z,59.77
2019-01-31T14:29:25.410Z,64.63
2019-01-31T14:31:58.197Z,63.40
2019-01-31T14:34:29.831Z,66.73
2019-01-31T14:37:00.224Z,72.77
2019-01-31T14:39:32.139Z,69.30
2019-01-31T14:42:02.652Z,65.97
2019-01-31T14:44:33.748Z,64.50
2019-01-31T14:47:04.163Z,61.73
2019-01-31T14:49:35.759Z,65.20
2019-01-31T14:52:06.516Z,60.83
2019-01-31T14:54:37.296Z,64.17
2019-01-31T14:57:08.505Z,70.00
2019-01-31T14:59:39.558Z,68.40
2019-01-31T15:02:10.482Z,67.77
2019-01-31T15:04:41.700Z,67.13
2019-01-31T15:07:12.489Z,72.10
2019-01-31T15:09:43.405Z,82.37
2019-01-31T15:12:14.097Z,74.90
2019-01-31T15:14:44.515Z,75.60
2019-01-31T15:17:15.490Z,77.60
2019-01-31T15:19:46.631Z,77.83
2019-01-31T15:22:17.819Z,75.17
2019-01-31T15:24:48.638Z,67.30
2019-01-31T15:27:19.439Z,70.47
2019-01-31T15:29:50.424Z,74.30
2019-01-31T15:32:21.427Z,67.83
2019-01-31T15:34:52.186Z,65.83
2019-01-31T15:37:22.650Z,69.93
2019-01-31T15:39:53.566Z,69.97
2019-01-31T15:42:25.185Z,72.30
2019-01-31T15:44:56.519Z,68.20
2019-01-31T15:47:27.077Z,70.90
2019-01-31T15:49:57.602Z,70.47
2019-01-31T15:52:28.586Z,77.40
2019-01-31T15:54:59.585Z,66.03
2019-01-31T15:57:30.738Z,63.50
2019-01-31T16:00:01.677Z,70.63
2019-01-31T16:02:32.722Z,72.53
2019-01-31T16:05:03.643Z,67.57
2019-01-31T16:07:34.600Z,63.87
2019-01-31T16:10:05.738Z,66.27
2019-01-31T16:12:36.537Z,67.93
2019-01-31T16:15:08.232Z,72.63
2019-01-31T16:17:38.627Z,74.27
2019-01-31T16:20:10.607Z,67.27
2019-01-31T16:22:43.087Z,70.37
2019-01-31T16:25:13.703Z,72.43
2019-01-31T16:27:44.618Z,66.53
2019-01-31T16:30:16.085Z,68.10
2019-01-31T16:32:46.833Z,70.73
2019-01-31T16:35:17.833Z,76.97
2019-01-31T16:37:49.024Z,74.70
2019-01-31T16:40:19.936Z,73.93
2019-01-31T16:42:50.873Z,71.80
2019-01-31T16:45:21.728Z,79.73
2019-01-31T16:47:54.786Z,78.30
2019-01-31T16:50:27.770Z,72.40
2019-01-31T16:52:59.824Z,85.17
2019-01-31T16:55:30.917Z,84.60
2019-01-31T16:58:01.927Z,89.93
2019-01-31T17:00:33.999Z,78.27
2019-01-31T17:03:05.259Z,79.10
2019-01-31T17:05:38.011Z,81.33
2019-01-31T17:08:09.057Z,87.13
2019-01-31T17:10:39.834Z,74.63
2019-01-31T17:13:10.959Z,72.27
2019-01-31T17:15:44.017Z,74.10
2019-01-31T17:18:14.961Z,76.67
2019-01-31T17:20:46.817Z,74.40
2019-01-31T17:23:17.230Z,69.93
2019-01-31T17:25:48.033Z,68.73
2019-01-31T17:28:19.051Z,65.00
2019-01-31T17:30:49.978Z,69.13
2019-01-31T17:33:20.894Z,64.57
2019-01-31T17:35:51.847Z,74.20
2019-01-31T17:38:22.292Z,67.20
2019-01-31T17:40:53.791Z,69.70
2019-01-31T17:43:24.679Z,71.67
2019-01-31T17:45:55.809Z,65.70
2019-01-31T17:48:26.681Z,63.27
2019-01-31T17:50:57.609Z,67.53
2019-01-31T17:53:28.046Z,63.90
2019-01-31T17:55:59.096Z,60.23
2019-01-31T17:58:30.517Z,59.03
2019-01-31T18:01:01.203Z,62.17
2019-01-31T18:03:32.585Z,65.83
2019-01-31T18:06:03.248Z,63.73
2019-01-31T18:08:34.240Z,59.90
2019-01-31T18:11:05.245Z,63.00
2019-01-31T18:13:36.297Z,66.00
2019-01-31T18:16:07.178Z,64.47
2019-01-31T18:18:38.324Z,57.27
2019-01-31T18:21:09.243Z,61.10
2019-01-31T18:23:40.155Z,66.00
2019-01-31T18:26:11.255Z,62.77
2019-01-31T18:28:42.196Z,66.27
2019-01-31T18:31:12.935Z,62.33
2019-01-31T18:33:43.472Z,62.20
2019-01-31T18:36:14.922Z,63.03
2019-01-31T18:38:45.398Z,74.13
2019-01-31T18:41:16.451Z,70.43
2019-01-31T18:43:47.203Z,72.40
2019-01-31T18:46:18.415Z,65.87
2019-01-31T18:48:49.908Z,71.47
2019-01-31T18:51:20.455Z,60.10
2019-01-31T18:53:53.743Z,69.10
2019-01-31T18:56:25.560Z,65.20
2019-01-31T18:58:56.737Z,73.00
2019-01-31T19:01:27.541Z,66.97
2019-01-31T19:03:58.572Z,67.90
2019-01-31T19:06:29.411Z,67.47
2019-01-31T19:09:01.009Z,64.40
2019-01-31T19:11:31.571Z,59.67
2019-01-31T19:14:02.455Z,63.67
2019-01-31T19:16:33.595Z,60.13
2019-01-31T19:19:04.740Z,65.03
2019-01-31T19:21:35.560Z,55.70
2019-01-31T19:24:08.657Z,65.50
2019-01-31T19:26:39.554Z,61.33
2019-01-31T19:29:10.954Z,62.37
2019-01-31T19:31:41.550Z,68.27
2019-01-31T19:34:13.693Z,57.17
2019-01-31T19:36:44.984Z,64.57
2019-01-31T19:39:18.909Z,58.40
2019-01-31T19:41:49.566Z,57.33
2019-01-31T19:44:21.702Z,56.70
2019-01-31T19:46:53.546Z,61.33
2019-01-31T19:49:25.752Z,60.30
2019-01-31T19:51:58.775Z,61.50
2019-01-31T19:54:30.157Z,63.83
2019-01-31T19:57:01.040Z,54.67
2019-01-31T19:59:31.760Z,60.93
2019-01-31T20:02:03.290Z,64.43
2019-01-31T20:04:34.826Z,60.13
2019-01-31T20:07:06.425Z,59.20
2019-01-31T20:09:38.723Z,64.93
2019-01-31T20:12:09.879Z,66.30
2019-01-31T20:14:40.743Z,63.67
2019-01-31T20:17:11.751Z,60.10
2019-01-31T20:19:42.885Z,65.80
2019-01-31T20:22:13.774Z,56.63
2019-01-31T20:24:44.916Z,55.70
2019-01-31T20:27:15.801Z,61.90
2019-01-31T20:29:46.989Z,59.73
2019-01-31T20:32:17.858Z,52.67
2019-01-31T20:34:48.823Z,64.70
2019-01-31T20:37:21.762Z,61.40
2019-01-31T20:39:53.997Z,58.60
2019-01-31T20:42:25.878Z,59.42
2019-01-31T20:44:57.882Z,57.37
2019-01-31T20:47:30.797Z,61.30
2019-01-31T20:50:04.067Z,61.58
2019-01-31T20:52:34.924Z,58.48
2019-01-31T20:55:06.986Z,58.80
2019-01-31T20:57:39.247Z,51.73
2019-01-31T21:00:14.857Z,57.90
2019-01-31T21:02:48.101Z,54.55
2019-01-31T21:05:21.226Z,58.35
2019-01-31T21:07:52.015Z,54.15
2019-01-31T21:10:22.407Z,53.38
2019-01-31T21:12:53.646Z,66.90
2019-01-31T21:15:26.131Z,51.93
2019-01-31T21:17:59.166Z,63.98
2019-01-31T21:20:32.091Z,63.65
2019-01-31T21:23:04.565Z,61.35
2019-01-31T21:25:35.151Z,56.73
2019-01-31T21:28:06.689Z,64.42
2019-01-31T21:30:41.554Z,67.85
2019-01-31T21:33:14.133Z,65.67
2019-01-31T21:35:45.128Z,75.72
2019-01-31T21:38:16.232Z,67.37
2019-01-31T21:40:47.207Z,71.10
2019-01-31T21:43:18.194Z,69.25
2019-01-31T21:45:51.236Z,64.45
2019-01-31T21:48:22.292Z,66.70
2019-01-31T21:50:53.097Z,69.75
2019-01-31T21:53:25.179Z,76.60
2019-01-31T21:55:59.904Z,63.92
2019-01-31T21:58:30.670Z,65.80
2019-01-31T22:01:03.279Z,65.12
2019-01-31T22:03:34.149Z,65.15
2019-01-31T22:06:05.418Z,69.32
2019-01-31T22:08:36.612Z,65.72
2019-01-31T22:11:07.382Z,65.30
2019-01-31T22:13:38.210Z,64.42
2019-01-31T22:16:09.723Z,64.90
2019-01-31T22:18:40.385Z,62.23
2019-01-31T22:21:11.325Z,61.10
2019-01-31T22:23:42.257Z,63.23
2019-01-31T22:26:13.432Z,64.40
2019-01-31T22:28:44.451Z,63.15
2019-01-31T22:31:15.402Z,67.17
2019-01-31T22:33:46.395Z,64.22
2019-01-31T22:36:17.855Z,65.55
2019-01-31T22:38:48.451Z,66.40
2019-01-31T22:41:19.434Z,62.17
2019-01-31T22:43:50.452Z,73.20
2019-01-31T22:46:21.508Z,63.00
2019-01-31T22:48:52.567Z,67.90
2019-01-31T22:51:23.042Z,71.57
2019-01-31T22:53:54.437Z,62.58
2019-01-31T22:56:25.422Z,66.22
2019-01-31T22:58:56.359Z,67.25
2019-01-31T23:01:45.202Z,72.40
2019-01-31T23:04:16.629Z,69.50
2019-01-31T23:06:47.573Z,68.83
2019-01-31T23:09:18.515Z,64.15
2019-01-31T23:11:49.690Z,67.37
2019-01-31T23:14:20.718Z,76.92
2019-01-31T23:16:51.566Z,65.45
2019-01-31T23:19:22.325Z,76.05
2019-01-31T23:21:53.527Z,68.72
2019-01-31T23:24:26.673Z,62.27
2019-01-31T23:26:57.557Z,60.48
2019-01-31T23:29:28.597Z,66.53
2019-01-31T23:31:59.544Z,68.80
2019-01-31T23:34:31.406Z,66.47
2019-01-31T23:37:02.721Z,68.83
2019-01-31T23:39:33.556Z,71.45
2019-01-31T23:42:05.846Z,72.45
2019-01-31T23:44:37.694Z,65.22
2019-01-31T23:47:10.191Z,70.20
2019-01-31T23:49:42.776Z,71.22
2019-01-31T23:52:14.612Z,64.90
2019-01-31T23:54:47.584Z,66.70
2019-01-31T23:57:18.633Z,72.22
2019-01-31T23:59:49.767Z,68.62
